Time;durP1;ratioP1;P1;durP2;ratioP2;P2;SDS_P1;SDS_P2;PMS_P1;PMS_P2;Temp;Humidity;BMP_temperature;BMP_pressure;BME280_temperature;BME280_humidity;BME280_pressure;Samples;Min_cycle;Max_cycle;Signal;HPM_P1;HPM_P2
2023/09/07 00:00:27;;;;;;;5.57;3.20;;;;;;;;;;5032681;28;20024;-69
2023/09/07 00:02:52;;;;;;;9.35;3.67;;;;;;;;;;5032206;28;20120;-70
2023/09/07 00:05:17;;;;;;;7.15;3.97;;;;;;;;;;5031640;28;20148;-69
2023/09/07 00:07:42;;;;;;;7.35;3.83;;;;;;;;;;5034174;28;20469;-70
2023/09/07 00:10:08;;;;;;;5.90;3.80;;;;;;;;;;5033339;28;20021;-69
2023/09/07 00:12:33;;;;;;;7.55;3.60;;;;;;;;;;5032425;28;20087;-69
2023/09/07 00:14:58;;;;;;;10.30;3.90;;;;;;;;;;5037363;28;20092;-69
2023/09/07 00:17:24;;;;;;;6.18;3.58;;;;;;;;;;5038347;28;20025;-70
2023/09/07 00:19:50;;;;;;;6.30;3.63;;;;;;;;;;5032764;28;20022;-70
2023/09/07 00:22:16;;;;;;;6.38;3.63;;;;;;;;;;5033805;28;20104;-70
2023/09/07 00:24:41;;;;;;;6.93;3.90;;;;;;;;;;5032783;28;20109;-69
2023/09/07 00:27:07;;;;;;;7.72;4.00;;;;;;;;;;5035306;28;20474;-70
2023/09/07 00:29:33;;;;;;;6.05;3.35;;;;;;;;;;5039481;28;20396;-70
2023/09/07 00:31:58;;;;;;;6.70;3.90;;;;;;;;;;5039028;28;20100;-69
2023/09/07 00:34:23;;;;;;;10.32;4.13;;;;;;;;;;5038020;28;20032;-69
2023/09/07 00:36:48;;;;;;;8.05;3.78;;;;;;;;;;5032405;28;20060;-69
2023/09/07 00:39:14;;;;;;;8.98;4.20;;;;;;;;;;5032400;28;20087;-69
2023/09/07 00:41:39;;;;;;;9.43;4.30;;;;;;;;;;5034062;28;20029;-69
2023/09/07 00:44:04;;;;;;;10.68;4.20;;;;;;;;;;5034674;28;20022;-69
2023/09/07 00:46:29;;;;;;;7.35;4.20;;;;;;;;;;5033783;28;20500;-69
2023/09/07 00:48:55;;;;;;;7.63;3.80;;;;;;;;;;5033652;28;20444;-69
2023/09/07 00:51:21;;;;;;;9.70;4.18;;;;;;;;;;5032511;28;20030;-69
2023/09/07 00:53:46;;;;;;;6.60;4.07;;;;;;;;;;5032702;28;20410;-69
2023/09/07 00:56:11;;;;;;;6.07;3.80;;;;;;;;;;5030368;28;20381;-69
2023/09/07 00:58:37;;;;;;;7.43;4.00;;;;;;;;;;5034422;28;20212;-69
2023/09/07 01:04:06;;;;;;;9.23;4.50;;;;;;;;;;5046387;23;20103;-67
2023/09/07 01:06:37;;;;;;;10.93;4.70;;;;;;;;;;5031740;28;20020;-67
2023/09/07 01:09:15;;;;;;;10.27;4.30;;;;;;;;;;5039092;28;20489;-67
2023/09/07 01:11:40;;;;;;;12.32;4.57;;;;;;;;;;5030439;28;20112;-67
2023/09/07 01:14:05;;;;;;;7.78;4.50;;;;;;;;;;5034561;28;20435;-67
2023/09/07 01:16:33;;;;;;;8.48;4.72;;;;;;;;;;5041635;28;20422;-67
2023/09/07 01:18:59;;;;;;;8.38;4.40;;;;;;;;;;5033182;28;20077;-67
2023/09/07 01:21:25;;;;;;;8.50;4.47;;;;;;;;;;5037693;28;20022;-67
2023/09/07 01:23:50;;;;;;;6.95;4.38;;;;;;;;;;5037551;28;20028;-67
2023/09/07 01:26:15;;;;;;;7.70;4.57;;;;;;;;;;5041628;28;20040;-67
2023/09/07 01:28:41;;;;;;;10.55;4.85;;;;;;;;;;5032221;28;20436;-67
2023/09/07 01:31:07;;;;;;;6.95;4.60;;;;;;;;;;5042419;28;20032;-67
2023/09/07 01:33:32;;;;;;;9.13;4.63;;;;;;;;;;5031374;28;20029;-67
2023/09/07 01:35:57;;;;;;;6.97;4.32;;;;;;;;;;5031863;28;20040;-66
2023/09/07 01:38:23;;;;;;;8.20;4.72;;;;;;;;;;5031793;28;20021;-67
2023/09/07 01:40:48;;;;;;;11.95;4.82;;;;;;;;;;5044257;28;20100;-66
2023/09/07 01:43:13;;;;;;;9.98;5.20;;;;;;;;;;5039474;28;20021;-67
2023/09/07 01:45:38;;;;;;;8.60;4.70;;;;;;;;;;5039850;28;20062;-67
2023/09/07 01:48:08;;;;;;;8.52;4.70;;;;;;;;;;5050733;28;20013;-66
2023/09/07 01:50:33;;;;;;;9.75;4.68;;;;;;;;;;5044759;28;20086;-66
2023/09/07 01:52:58;;;;;;;8.45;5.18;;;;;;;;;;5037291;28;20032;-66
2023/09/07 01:55:23;;;;;;;7.40;4.88;;;;;;;;;;5046611;28;20035;-66
2023/09/07 01:57:48;;;;;;;11.32;4.82;;;;;;;;;;5034929;28;20022;-65
2023/09/07 02:00:14;;;;;;;10.00;5.00;;;;;;;;;;5036062;28;20036;-66
2023/09/07 02:02:39;;;;;;;7.35;5.32;;;;;;;;;;5035483;28;20053;-66
2023/09/07 02:05:04;;;;;;;9.85;5.40;;;;;;;;;;5034900;28;20044;-66
2023/09/07 02:07:30;;;;;;;9.55;5.40;;;;;;;;;;5035354;28;20041;-68
2023/09/07 02:09:55;;;;;;;8.27;5.43;;;;;;;;;;5047224;28;20029;-66
2023/09/07 02:12:20;;;;;;;9.18;6.03;;;;;;;;;;5042695;28;20056;-66
2023/09/07 02:14:46;;;;;;;10.98;5.85;;;;;;;;;;5038950;28;20495;-66
2023/09/07 02:17:14;;;;;;;10.43;5.47;;;;;;;;;;5045020;28;20029;-67
2023/09/07 02:19:39;;;;;;;9.60;5.45;;;;;;;;;;5041222;28;20032;-66
2023/09/07 02:22:04;;;;;;;8.48;5.80;;;;;;;;;;5043824;28;20028;-66
2023/09/07 02:24:29;;;;;;;11.82;6.40;;;;;;;;;;5052679;28;20074;-66
2023/09/07 02:26:55;;;;;;;9.32;5.93;;;;;;;;;;5046856;28;20025;-66
2023/09/07 02:29:20;;;;;;;9.13;6.32;;;;;;;;;;5041823;28;20032;-66
2023/09/07 02:31:45;;;;;;;9.32;6.07;;;;;;;;;;5037696;28;20033;-65
2023/09/07 02:34:10;;;;;;;10.82;6.25;;;;;;;;;;5044366;28;20029;-66
2023/09/07 02:36:36;;;;;;;9.82;6.50;;;;;;;;;;5034858;28;20030;-66
2023/09/07 02:39:01;;;;;;;12.55;6.95;;;;;;;;;;5040997;28;20075;-66
2023/09/07 02:41:27;;;;;;;11.32;5.88;;;;;;;;;;5034319;28;20021;-66
2023/09/07 02:43:52;;;;;;;14.98;6.55;;;;;;;;;;5036017;28;20021;-66
2023/09/07 02:46:17;;;;;;;13.70;7.03;;;;;;;;;;5049299;28;20033;-67
2023/09/07 02:48:42;;;;;;;9.35;6.68;;;;;;;;;;5041215;28;20025;-66
2023/09/07 02:51:08;;;;;;;12.90;7.40;;;;;;;;;;5043952;28;20033;-66
2023/09/07 02:53:33;;;;;;;11.02;6.72;;;;;;;;;;5046630;28;20033;-67
2023/09/07 02:55:58;;;;;;;10.10;7.47;;;;;;;;;;5037963;28;20048;-66
2023/09/07 02:58:24;;;;;;;12.25;7.50;;;;;;;;;;5034638;28;20397;-66
2023/09/07 03:00:49;;;;;;;13.98;8.15;;;;;;;;;;5035785;28;20048;-66
2023/09/07 03:03:15;;;;;;;14.10;8.40;;;;;;;;;;5032839;28;20100;-66
2023/09/07 03:05:41;;;;;;;13.18;8.05;;;;;;;;;;5036240;28;20033;-66
2023/09/07 03:08:07;;;;;;;15.10;8.25;;;;;;;;;;5033854;28;20022;-66
2023/09/07 03:10:32;;;;;;;11.95;8.02;;;;;;;;;;5033957;28;20389;-66
2023/09/07 03:12:58;;;;;;;17.67;9.20;;;;;;;;;;5043766;28;20025;-67
2023/09/07 03:15:23;;;;;;;27.65;9.38;;;;;;;;;;5034178;28;20360;-67
2023/09/07 03:17:48;;;;;;;15.63;8.98;;;;;;;;;;5037229;28;20095;-69
2023/09/07 03:20:14;;;;;;;14.35;9.32;;;;;;;;;;5034986;28;20017;-67
2023/09/07 03:22:43;;;;;;;18.45;9.10;;;;;;;;;;5036430;28;20028;-67
2023/09/07 03:25:09;;;;;;;14.95;8.95;;;;;;;;;;5033644;28;20039;-61
2023/09/07 03:27:34;;;;;;;12.88;8.02;;;;;;;;;;5033403;28;20019;-62
2023/09/07 03:30:00;;;;;;;19.83;7.43;;;;;;;;;;5032904;28;20100;-62
2023/09/07 03:32:28;;;;;;;15.68;8.40;;;;;;;;;;5033604;28;20083;-61
2023/09/07 03:34:54;;;;;;;14.70;8.50;;;;;;;;;;5034233;28;20465;-61
2023/09/07 03:37:20;;;;;;;13.43;9.68;;;;;;;;;;5043628;28;20048;-62
2023/09/07 03:39:45;;;;;;;14.68;9.02;;;;;;;;;;5033545;28;20079;-61
2023/09/07 03:42:10;;;;;;;14.93;8.27;;;;;;;;;;5038999;28;20049;-61
2023/09/07 03:44:35;;;;;;;12.27;8.25;;;;;;;;;;5045225;28;20021;-61
2023/09/07 03:47:01;;;;;;;13.20;8.82;;;;;;;;;;5049859;28;20045;-62
2023/09/07 03:49:26;;;;;;;14.40;9.35;;;;;;;;;;5033565;28;20053;-61
2023/09/07 03:51:51;;;;;;;14.80;9.25;;;;;;;;;;5032881;28;20022;-62
2023/09/07 03:54:16;;;;;;;17.30;10.70;;;;;;;;;;5040180;28;20349;-61
2023/09/07 03:56:41;;;;;;;21.02;11.57;;;;;;;;;;5040890;28;20488;-61
2023/09/07 03:59:07;;;;;;;15.35;10.27;;;;;;;;;;5033356;28;20108;-61
2023/09/07 04:01:32;;;;;;;14.23;9.68;;;;;;;;;;5032809;28;20026;-60
2023/09/07 04:03:58;;;;;;;15.55;10.75;;;;;;;;;;5036456;28;20052;-61
2023/09/07 04:06:24;;;;;;;24.10;13.40;;;;;;;;;;5050228;28;20051;-61
2023/09/07 04:08:49;;;;;;;18.80;12.80;;;;;;;;;;5037517;28;20063;-61
2023/09/07 04:11:14;;;;;;;19.30;12.68;;;;;;;;;;5031896;28;20036;-62
2023/09/07 04:13:39;;;;;;;18.13;11.85;;;;;;;;;;5045250;28;20076;-61
2023/09/07 04:16:04;;;;;;;19.85;11.05;;;;;;;;;;5034537;28;20029;-60
2023/09/07 04:18:30;;;;;;;19.67;10.80;;;;;;;;;;5032873;28;20118;-61
2023/09/07 04:21:04;;;;;;;16.58;10.70;;;;;;;;;;5032479;28;20025;-61
2023/09/07 04:23:29;;;;;;;16.67;10.18;;;;;;;;;;5035570;28;20014;-61
2023/09/07 04:26:03;;;;;;;16.20;10.23;;;;;;;;;;5051847;28;20372;-61
2023/09/07 04:28:28;;;;;;;15.02;10.27;;;;;;;;;;5037445;28;20569;-61
2023/09/07 04:30:53;;;;;;;15.95;10.23;;;;;;;;;;5046845;28;20092;-61
2023/09/07 04:33:18;;;;;;;16.77;9.60;;;;;;;;;;5038500;28;20547;-61
2023/09/07 04:35:44;;;;;;;13.43;9.45;;;;;;;;;;5044603;28;20047;-61
2023/09/07 04:38:09;;;;;;;16.83;9.18;;;;;;;;;;5051371;28;20083;-62
2023/09/07 04:40:34;;;;;;;15.50;8.82;;;;;;;;;;5051167;28;20012;-61
2023/09/07 04:42:59;;;;;;;13.90;8.73;;;;;;;;;;5051635;28;20013;-61
2023/09/07 04:45:25;;;;;;;13.70;8.55;;;;;;;;;;5041145;28;20112;-61
2023/09/07 04:47:50;;;;;;;15.10;9.00;;;;;;;;;;5032080;28;20021;-61
2023/09/07 04:50:16;;;;;;;16.80;8.55;;;;;;;;;;5043603;28;20016;-61
2023/09/07 04:52:41;;;;;;;18.13;10.98;;;;;;;;;;5039815;28;20030;-62
2023/09/07 04:55:06;;;;;;;18.35;11.85;;;;;;;;;;5031809;28;20067;-61
2023/09/07 04:57:31;;;;;;;18.52;12.32;;;;;;;;;;5039364;28;20029;-60
2023/09/07 04:59:57;;;;;;;21.20;12.48;;;;;;;;;;5032174;28;20469;-61
2023/09/07 05:02:22;;;;;;;19.50;11.70;;;;;;;;;;5037202;28;20057;-62
2023/09/07 05:04:47;;;;;;;18.27;11.15;;;;;;;;;;5031726;28;20057;-61
2023/09/07 05:07:13;;;;;;;18.17;11.40;;;;;;;;;;5035975;28;20516;-61
2023/09/07 05:09:38;;;;;;;14.85;10.52;;;;;;;;;;5031535;28;20104;-60
2023/09/07 05:12:03;;;;;;;17.27;10.75;;;;;;;;;;5037600;28;20060;-60
2023/09/07 05:14:29;;;;;;;15.52;10.57;;;;;;;;;;5032090;28;20017;-61
2023/09/07 05:16:56;;;;;;;15.45;9.93;;;;;;;;;;5039649;28;20032;-61
2023/09/07 05:19:21;;;;;;;14.05;10.02;;;;;;;;;;5049496;28;20028;-60
2023/09/07 05:21:46;;;;;;;15.63;9.45;;;;;;;;;;5043432;28;20461;-61
2023/09/07 05:24:13;;;;;;;14.20;9.02;;;;;;;;;;5050974;28;20371;-61
2023/09/07 05:26:38;;;;;;;12.02;8.68;;;;;;;;;;5046077;28;20518;-60
2023/09/07 05:29:03;;;;;;;14.65;8.48;;;;;;;;;;5046671;28;20060;-62
2023/09/07 05:31:29;;;;;;;14.27;8.55;;;;;;;;;;5048664;28;20099;-61
2023/09/07 05:33:54;;;;;;;13.32;8.23;;;;;;;;;;5035898;28;20032;-61
2023/09/07 05:36:19;;;;;;;13.38;7.82;;;;;;;;;;5038617;28;20057;-60
2023/09/07 05:38:44;;;;;;;12.30;8.13;;;;;;;;;;5043570;28;20017;-60
2023/09/07 05:41:09;;;;;;;12.95;7.90;;;;;;;;;;5049045;28;20096;-61
2023/09/07 05:43:35;;;;;;;12.43;7.32;;;;;;;;;;5054360;28;20104;-60
2023/09/07 05:46:00;;;;;;;13.32;7.70;;;;;;;;;;5050892;28;20060;-59
2023/09/07 05:48:26;;;;;;;13.70;6.82;;;;;;;;;;5039903;28;20484;-59
2023/09/07 05:50:51;;;;;;;12.07;6.80;;;;;;;;;;5038711;28;20016;-59
2023/09/07 05:53:18;;;;;;;11.95;6.70;;;;;;;;;;5035472;28;20109;-59
2023/09/07 05:55:43;;;;;;;9.90;6.47;;;;;;;;;;5036837;28;20024;-58
2023/09/07 05:58:08;;;;;;;11.38;6.30;;;;;;;;;;5044080;28;20033;-59
2023/09/07 06:00:38;;;;;;;12.05;6.57;;;;;;;;;;5032023;28;20037;-59
2023/09/07 06:03:04;;;;;;;8.90;6.20;;;;;;;;;;5042048;28;20048;-59
2023/09/07 06:05:29;;;;;;;10.02;6.32;;;;;;;;;;5035937;28;20029;-58
2023/09/07 06:07:55;;;;;;;11.00;6.57;;;;;;;;;;5035675;28;20418;-58
2023/09/07 06:10:20;;;;;;;8.90;5.55;;;;;;;;;;5040283;28;20078;-58
2023/09/07 06:12:45;;;;;;;10.05;6.35;;;;;;;;;;5037930;28;20092;-58
2023/09/07 06:15:10;;;;;;;11.07;6.28;;;;;;;;;;5050225;28;20054;-58
2023/09/07 06:17:36;;;;;;;11.63;6.20;;;;;;;;;;5044915;28;20081;-59
2023/09/07 06:20:02;;;;;;;10.65;6.25;;;;;;;;;;5043535;28;20100;-59
2023/09/07 06:22:27;;;;;;;12.68;6.03;;;;;;;;;;5042832;28;20013;-58
2023/09/07 06:24:53;;;;;;;10.82;5.80;;;;;;;;;;5050773;28;20020;-58
2023/09/07 06:27:18;;;;;;;11.80;5.93;;;;;;;;;;5043030;28;20057;-60
2023/09/07 06:29:43;;;;;;;11.43;6.43;;;;;;;;;;5035097;28;20025;-58
2023/09/07 06:32:08;;;;;;;11.80;6.70;;;;;;;;;;5034836;28;20021;-58
2023/09/07 06:34:33;;;;;;;10.32;5.82;;;;;;;;;;5034992;28;20017;-60
2023/09/07 06:36:59;;;;;;;12.82;6.10;;;;;;;;;;5035110;28;20021;-59
2023/09/07 06:39:24;;;;;;;9.63;5.53;;;;;;;;;;5034656;28;20049;-59
2023/09/07 06:41:49;;;;;;;10.00;5.65;;;;;;;;;;5034668;28;20017;-58
2023/09/07 06:44:15;;;;;;;8.95;5.90;;;;;;;;;;5034842;28;20104;-59
2023/09/07 06:46:40;;;;;;;10.30;5.93;;;;;;;;;;5035082;28;20025;-59
2023/09/07 06:49:05;;;;;;;11.30;5.65;;;;;;;;;;5034931;28;20359;-59
2023/09/07 06:51:31;;;;;;;13.25;7.15;;;;;;;;;;5034929;28;20063;-59
2023/09/07 06:53:56;;;;;;;9.90;5.70;;;;;;;;;;5034475;28;20087;-60
2023/09/07 06:56:22;;;;;;;9.70;5.90;;;;;;;;;;5037252;28;20100;-65
2023/09/07 06:58:47;;;;;;;9.45;5.80;;;;;;;;;;5034699;28;20102;-66
2023/09/07 07:01:12;;;;;;;9.10;5.93;;;;;;;;;;5034782;28;20025;-65
2023/09/07 07:03:38;;;;;;;9.45;5.57;;;;;;;;;;5034216;28;20049;-67
2023/09/07 07:06:03;;;;;;;9.38;6.00;;;;;;;;;;5034663;28;20014;-66
2023/09/07 07:08:28;;;;;;;8.13;5.85;;;;;;;;;;5034515;28;20025;-68
2023/09/07 07:10:53;;;;;;;12.18;5.38;;;;;;;;;;5034286;28;20029;-66
2023/09/07 07:13:20;;;;;;;8.88;5.38;;;;;;;;;;5034095;28;20041;-68
2023/09/07 07:15:45;;;;;;;8.38;5.22;;;;;;;;;;5046883;28;20029;-68
2023/09/07 07:18:11;;;;;;;7.38;5.20;;;;;;;;;;5041112;28;20479;-68
2023/09/07 07:20:39;;;;;;;9.20;6.00;;;;;;;;;;5033653;28;20030;-67
2023/09/07 07:23:06;;;;;;;12.65;5.90;;;;;;;;;;5033243;28;20017;-68
2023/09/07 07:25:33;;;;;;;7.95;4.95;;;;;;;;;;5035201;28;20045;-68
2023/09/07 07:27:59;;;;;;;11.60;5.55;;;;;;;;;;5034149;28;20017;-68
2023/09/07 07:30:26;;;;;;;8.38;4.95;;;;;;;;;;5034220;28;20013;-67
2023/09/07 07:32:51;;;;;;;7.10;4.43;;;;;;;;;;5029714;28;20014;-67
2023/09/07 07:35:17;;;;;;;7.70;4.32;;;;;;;;;;5033721;28;20010;-66
2023/09/07 07:37:42;;;;;;;7.68;4.40;;;;;;;;;;5034065;28;20385;-67
2023/09/07 07:40:07;;;;;;;8.30;4.95;;;;;;;;;;5033824;28;20033;-66
2023/09/07 07:42:32;;;;;;;8.23;4.57;;;;;;;;;;5033683;28;20014;-66
2023/09/07 07:44:58;;;;;;;30.50;5.38;;;;;;;;;;5038195;28;20469;-66
2023/09/07 07:47:23;;;;;;;8.45;4.63;;;;;;;;;;5033555;28;20377;-67
2023/09/07 07:49:48;;;;;;;9.35;4.32;;;;;;;;;;5033211;28;20370;-67
2023/09/07 07:52:13;;;;;;;7.10;4.57;;;;;;;;;;5042467;28;20020;-67
2023/09/07 07:54:39;;;;;;;9.20;4.53;;;;;;;;;;5051929;28;20396;-67
2023/09/07 07:57:04;;;;;;;6.10;3.97;;;;;;;;;;5033701;28;20029;-68
2023/09/07 07:59:32;;;;;;;9.13;4.10;;;;;;;;;;5032239;28;20092;-68
2023/09/07 08:01:58;;;;;;;7.88;4.00;;;;;;;;;;5037246;28;20021;-67
2023/09/07 08:04:23;;;;;;;7.40;4.00;;;;;;;;;;5042170;28;20041;-68
2023/09/07 08:06:48;;;;;;;6.90;3.95;;;;;;;;;;5037028;28;20057;-63
2023/09/07 08:09:14;;;;;;;7.70;3.92;;;;;;;;;;5033455;28;20033;-61
2023/09/07 08:11:39;;;;;;;7.82;3.88;;;;;;;;;;5033277;28;20022;-60
2023/09/07 08:14:04;;;;;;;6.75;3.90;;;;;;;;;;5033448;28;20027;-63
2023/09/07 08:16:30;;;;;;;7.75;3.75;;;;;;;;;;5033293;28;20021;-61
2023/09/07 08:18:55;;;;;;;5.30;3.50;;;;;;;;;;5048870;28;20377;-62
2023/09/07 08:21:20;;;;;;;6.25;3.78;;;;;;;;;;5051762;28;20013;-62
2023/09/07 08:23:45;;;;;;;7.63;3.65;;;;;;;;;;5051458;28;20021;-62
2023/09/07 08:26:11;;;;;;;7.45;3.88;;;;;;;;;;5051560;28;20005;-63
2023/09/07 08:28:36;;;;;;;7.15;3.72;;;;;;;;;;5038866;28;20024;-63
2023/09/07 08:31:04;;;;;;;7.28;3.90;;;;;;;;;;5032692;28;20021;-61
2023/09/07 08:33:30;;;;;;;6.28;3.90;;;;;;;;;;5032827;28;20029;-62
2023/09/07 08:35:56;;;;;;;7.68;4.05;;;;;;;;;;5032654;28;20369;-63
2023/09/07 08:38:27;;;;;;;9.35;3.90;;;;;;;;;;5032596;28;20018;-61
2023/09/07 08:40:59;;;;;;;8.60;3.70;;;;;;;;;;5032850;28;20029;-62
2023/09/07 08:43:27;;;;;;;5.72;3.55;;;;;;;;;;5032627;28;20017;-63
2023/09/07 08:45:59;;;;;;;5.88;3.40;;;;;;;;;;5032896;28;20484;-62
2023/09/07 08:48:25;;;;;;;6.70;3.70;;;;;;;;;;5032538;28;20063;-62
2023/09/07 08:50:52;;;;;;;8.95;3.53;;;;;;;;;;5050875;28;20112;-63
2023/09/07 08:53:18;;;;;;;8.45;3.45;;;;;;;;;;5051044;28;20495;-62
2023/09/07 08:55:44;;;;;;;5.88;3.50;;;;;;;;;;5051041;28;20492;-62
2023/09/07 08:58:09;;;;;;;7.55;3.58;;;;;;;;;;5038691;28;20009;-62
2023/09/07 09:00:35;;;;;;;5.85;3.20;;;;;;;;;;5032736;28;20026;-63
2023/09/07 09:03:00;;;;;;;5.95;3.20;;;;;;;;;;5032260;28;20017;-63
2023/09/07 09:05:27;;;;;;;6.00;3.40;;;;;;;;;;5032132;28;20042;-62
2023/09/07 09:08:05;;;;;;;6.82;3.05;;;;;;;;;;5032245;28;20032;-61
2023/09/07 09:10:30;;;;;;;5.03;3.10;;;;;;;;;;5028198;28;20047;-63
2023/09/07 09:12:56;;;;;;;7.63;3.28;;;;;;;;;;5032210;28;20041;-63
2023/09/07 09:15:22;;;;;;;6.45;3.60;;;;;;;;;;5032540;28;20013;-63
2023/09/07 09:17:47;;;;;;;5.53;3.40;;;;;;;;;;5037301;28;20350;-63
2023/09/07 09:20:25;;;;;;;6.30;3.30;;;;;;;;;;5034196;28;20373;-63
2023/09/07 09:22:54;;;;;;;6.35;3.53;;;;;;;;;;5031223;28;20022;-64
2023/09/07 09:25:20;;;;;;;6.45;2.88;;;;;;;;;;5032145;28;20125;-65
2023/09/07 09:27:46;;;;;;;6.00;3.17;;;;;;;;;;5040750;28;20092;-64
2023/09/07 09:30:12;;;;;;;6.57;3.28;;;;;;;;;;5032737;28;20028;-63
2023/09/07 09:32:38;;;;;;;5.82;3.30;;;;;;;;;;5036891;28;20393;-63
2023/09/07 09:35:03;;;;;;;6.13;3.95;;;;;;;;;;5031995;28;20025;-64
2023/09/07 09:37:29;;;;;;;4.75;2.95;;;;;;;;;;5031861;28;20053;-61
2023/09/07 09:39:55;;;;;;;10.10;3.10;;;;;;;;;;5032130;28;20029;-65
2023/09/07 09:42:21;;;;;;;7.57;3.60;;;;;;;;;;5031937;28;20084;-65
2023/09/07 09:44:49;;;;;;;5.97;3.17;;;;;;;;;;5034353;28;20056;-62
2023/09/07 09:47:15;;;;;;;5.55;3.00;;;;;;;;;;5033752;28;20397;-63
2023/09/07 09:49:40;;;;;;;4.93;2.80;;;;;;;;;;5031843;28;20017;-64
2023/09/07 09:52:06;;;;;;;5.28;2.85;;;;;;;;;;5031858;28;20031;-63
2023/09/07 09:54:34;;;;;;;5.57;2.80;;;;;;;;;;5031913;28;20102;-65
2023/09/07 09:57:00;;;;;;;5.35;3.33;;;;;;;;;;5031325;28;20408;-67
2023/09/07 09:59:25;;;;;;;8.90;3.00;;;;;;;;;;5031421;28;20021;-64
2023/09/07 10:01:52;;;;;;;4.60;2.80;;;;;;;;;;5031845;28;20434;-64
2023/09/07 10:04:18;;;;;;;6.30;2.75;;;;;;;;;;5031527;28;20046;-67
2023/09/07 10:06:50;;;;;;;4.57;2.55;;;;;;;;;;5031976;28;20071;-64
2023/09/07 10:09:18;;;;;;;4.20;2.45;;;;;;;;;;5031972;28;20022;-63
2023/09/07 10:11:43;;;;;;;5.32;2.78;;;;;;;;;;5031067;28;20025;-66
2023/09/07 10:14:08;;;;;;;6.20;2.40;;;;;;;;;;5051717;28;20534;-65
2023/09/07 10:16:55;;;;;;;5.28;3.03;;;;;;;;;;5048854;28;20045;-66
2023/09/07 10:19:24;;;;;;;6.68;2.80;;;;;;;;;;5033960;28;20040;-64
2023/09/07 10:21:50;;;;;;;6.07;2.60;;;;;;;;;;5035432;28;20515;-65
2023/09/07 10:24:25;;;;;;;5.78;3.00;;;;;;;;;;5035499;28;20010;-64
2023/09/07 10:27:01;;;;;;;9.10;2.58;;;;;;;;;;5035164;28;20071;-66
2023/09/07 10:29:26;;;;;;;7.30;2.83;;;;;;;;;;5043257;28;20052;-67
2023/09/07 10:31:51;;;;;;;4.40;2.47;;;;;;;;;;5035792;28;20485;-69
2023/09/07 10:34:17;;;;;;;5.05;3.08;;;;;;;;;;5035211;28;20372;-69
2023/09/07 10:36:42;;;;;;;4.82;2.72;;;;;;;;;;5035323;28;20024;-70
2023/09/07 10:39:08;;;;;;;6.28;2.80;;;;;;;;;;5053365;28;20082;-68
2023/09/07 10:41:41;;;;;;;4.50;2.75;;;;;;;;;;5039418;28;20037;-66
2023/09/07 10:44:07;;;;;;;4.93;2.90;;;;;;;;;;5034849;28;20476;-72
2023/09/07 10:46:32;;;;;;;4.55;2.70;;;;;;;;;;5034753;28;20021;-67
2023/09/07 10:48:57;;;;;;;4.68;2.85;;;;;;;;;;5045377;28;20025;-70
2023/09/07 10:51:23;;;;;;;5.80;3.00;;;;;;;;;;5047984;28;20462;-68
2023/09/07 10:53:49;;;;;;;5.10;3.00;;;;;;;;;;5039029;28;20029;-68
2023/09/07 10:56:14;;;;;;;5.63;3.38;;;;;;;;;;5034946;28;20025;-69
2023/09/07 10:58:41;;;;;;;5.32;3.30;;;;;;;;;;5034535;28;20389;-68
2023/09/07 11:01:07;;;;;;;7.93;3.70;;;;;;;;;;5034773;28;20487;-69
2023/09/07 11:03:33;;;;;;;6.63;3.58;;;;;;;;;;5034415;28;20053;-70
2023/09/07 11:06:04;;;;;;;6.43;2.80;;;;;;;;;;5034717;28;20068;-72
2023/09/07 11:08:29;;;;;;;5.55;3.28;;;;;;;;;;5034687;28;20021;-67
2023/09/07 11:10:55;;;;;;;6.43;3.00;;;;;;;;;;5035083;28;20484;-69
2023/09/07 11:13:21;;;;;;;6.93;3.50;;;;;;;;;;5037994;28;20040;-71
2023/09/07 11:15:46;;;;;;;5.28;2.80;;;;;;;;;;5034453;28;20470;-66
2023/09/07 11:18:12;;;;;;;4.70;3.13;;;;;;;;;;5033538;28;20101;-70
2023/09/07 11:20:39;;;;;;;5.90;2.85;;;;;;;;;;5038428;28;20025;-68
2023/09/07 11:23:05;;;;;;;5.90;3.40;;;;;;;;;;5033972;28;20017;-70
2023/09/07 11:25:35;;;;;;;11.73;3.30;;;;;;;;;;5033102;28;20083;-72
2023/09/07 11:28:01;;;;;;;5.15;3.03;;;;;;;;;;5038102;28;20018;-66
2023/09/07 11:30:26;;;;;;;4.82;2.90;;;;;;;;;;5034792;28;20017;-66
2023/09/07 11:32:59;;;;;;;5.57;3.20;;;;;;;;;;5044274;28;20436;-67
2023/09/07 11:35:24;;;;;;;5.35;2.85;;;;;;;;;;5037909;28;20079;-68
2023/09/07 11:37:51;;;;;;;5.30;3.10;;;;;;;;;;5034133;28;20021;-71
2023/09/07 11:40:17;;;;;;;5.78;3.45;;;;;;;;;;5034069;28;20519;-69
2023/09/07 11:42:42;;;;;;;5.05;2.80;;;;;;;;;;5031549;28;20017;-66
2023/09/07 11:45:09;;;;;;;6.45;3.40;;;;;;;;;;5033843;28;20056;-67
2023/09/07 11:47:34;;;;;;;7.22;3.03;;;;;;;;;;5033873;28;20087;-71
2023/09/07 11:50:00;;;;;;;5.80;3.05;;;;;;;;;;5033707;28;20126;-67
2023/09/07 11:52:25;;;;;;;8.48;3.38;;;;;;;;;;5043002;28;20021;-68
2023/09/07 11:54:50;;;;;;;5.72;3.10;;;;;;;;;;5051636;28;20035;-69
2023/09/07 11:57:16;;;;;;;5.60;3.00;;;;;;;;;;5033833;28;20027;-67
2023/09/07 11:59:41;;;;;;;4.78;2.80;;;;;;;;;;5033448;28;20033;-68
2023/09/07 12:02:06;;;;;;;7.50;3.25;;;;;;;;;;5033297;28;20044;-66
2023/09/07 12:04:32;;;;;;;7.32;3.03;;;;;;;;;;5033169;28;20064;-68
2023/09/07 12:06:57;;;;;;;6.00;2.60;;;;;;;;;;5034487;28;20022;-67
2023/09/07 12:09:22;;;;;;;5.07;2.80;;;;;;;;;;5034628;28;20026;-68
2023/09/07 12:11:48;;;;;;;5.38;2.90;;;;;;;;;;5033140;28;20030;-70
2023/09/07 12:14:13;;;;;;;4.15;2.50;;;;;;;;;;5033371;28;20025;-70
2023/09/07 12:16:38;;;;;;;5.60;2.78;;;;;;;;;;5032238;28;20135;-68
2023/09/07 12:19:03;;;;;;;5.30;3.03;;;;;;;;;;5032764;28;20028;-70
2023/09/07 12:21:28;;;;;;;5.28;2.67;;;;;;;;;;5032908;28;20024;-68
2023/09/07 12:23:54;;;;;;;4.60;2.60;;;;;;;;;;5032838;28;20025;-68
2023/09/07 12:26:20;;;;;;;7.47;2.95;;;;;;;;;;5032723;28;20013;-70
2023/09/07 12:28:45;;;;;;;5.45;2.53;;;;;;;;;;5033170;28;20104;-69
2023/09/07 12:31:11;;;;;;;6.30;2.78;;;;;;;;;;5032941;28;20485;-69
2023/09/07 12:33:37;;;;;;;5.32;2.65;;;;;;;;;;5032963;28;20393;-67
2023/09/07 12:36:03;;;;;;;4.47;2.75;;;;;;;;;;5032698;28;20013;-70
2023/09/07 12:38:29;;;;;;;6.65;3.33;;;;;;;;;;5032557;28;20032;-67
2023/09/07 12:40:54;;;;;;;6.70;2.72;;;;;;;;;;5032696;28;20013;-70
2023/09/07 12:43:20;;;;;;;5.65;2.80;;;;;;;;;;5032901;28;20029;-67
2023/09/07 12:45:48;;;;;;;6.28;2.75;;;;;;;;;;5035584;28;20021;-70
2023/09/07 12:48:13;;;;;;;4.68;2.35;;;;;;;;;;5051072;28;20047;-69
2023/09/07 12:50:40;;;;;;;5.28;2.40;;;;;;;;;;5051294;28;20404;-67
2023/09/07 12:53:05;;;;;;;6.00;2.10;;;;;;;;;;5051316;28;20346;-62
2023/09/07 12:55:31;;;;;;;5.30;2.50;;;;;;;;;;5050448;28;20070;-67
2023/09/07 12:57:56;;;;;;;4.10;2.30;;;;;;;;;;5033208;28;20063;-64
2023/09/07 13:00:21;;;;;;;5.28;2.70;;;;;;;;;;5032367;28;20484;-68
2023/09/07 13:02:47;;;;;;;4.22;2.40;;;;;;;;;;5032671;28;20033;-65
2023/09/07 13:05:12;;;;;;;6.15;2.80;;;;;;;;;;5032085;28;20050;-67
2023/09/07 13:07:37;;;;;;;5.80;2.80;;;;;;;;;;5032660;28;20022;-67
2023/09/07 13:10:04;;;;;;;6.40;2.80;;;;;;;;;;5032221;28;20466;-69
2023/09/07 13:12:29;;;;;;;7.35;3.00;;;;;;;;;;5036546;28;20124;-70
2023/09/07 13:14:54;;;;;;;4.80;2.60;;;;;;;;;;5031441;28;20037;-69
2023/09/07 13:17:19;;;;;;;7.15;2.40;;;;;;;;;;5032073;28;20112;-66
2023/09/07 13:19:45;;;;;;;6.47;2.60;;;;;;;;;;5039539;28;20488;-69
2023/09/07 13:22:10;;;;;;;4.47;2.50;;;;;;;;;;5049422;28;20440;-67
2023/09/07 13:24:36;;;;;;;5.90;2.83;;;;;;;;;;5048429;28;20016;-71
2023/09/07 13:27:03;;;;;;;6.75;2.70;;;;;;;;;;5043626;28;20017;-67
2023/09/07 13:29:28;;;;;;;6.13;2.60;;;;;;;;;;5050789;28;20037;-65
2023/09/07 13:31:54;;;;;;;5.57;2.88;;;;;;;;;;5050815;28;20377;-68
2023/09/07 13:34:20;;;;;;;4.05;2.28;;;;;;;;;;5043562;28;20474;-67
2023/09/07 13:36:46;;;;;;;4.63;2.40;;;;;;;;;;5036645;28;20037;-64
2023/09/07 13:39:11;;;;;;;5.22;2.80;;;;;;;;;;5032098;28;20013;-64
2023/09/07 13:41:36;;;;;;;5.15;2.53;;;;;;;;;;5031947;28;20042;-65
2023/09/07 13:44:01;;;;;;;5.10;2.30;;;;;;;;;;5032174;28;20006;-67
2023/09/07 13:46:27;;;;;;;7.05;2.90;;;;;;;;;;5032216;28;20021;-66
2023/09/07 13:48:52;;;;;;;5.05;2.70;;;;;;;;;;5035292;28;20022;-62
2023/09/07 13:51:17;;;;;;;6.20;2.70;;;;;;;;;;5035958;28;20389;-69
2023/09/07 13:53:43;;;;;;;5.88;2.90;;;;;;;;;;5035686;28;20021;-69
2023/09/07 13:56:08;;;;;;;5.40;2.83;;;;;;;;;;5035905;28;20025;-71
2023/09/07 13:58:33;;;;;;;4.93;2.97;;;;;;;;;;5039739;28;20021;-70
2023/09/07 14:00:58;;;;;;;5.25;2.88;;;;;;;;;;5048675;28;20028;-67
2023/09/07 14:03:24;;;;;;;4.75;2.75;;;;;;;;;;5051510;28;20343;-68
2023/09/07 14:05:49;;;;;;;5.88;3.00;;;;;;;;;;5054504;28;20463;-68
2023/09/07 14:08:15;;;;;;;7.20;2.80;;;;;;;;;;5035825;28;20350;-71
2023/09/07 14:10:40;;;;;;;5.25;2.78;;;;;;;;;;5035397;28;20026;-68
2023/09/07 14:13:05;;;;;;;7.72;2.90;;;;;;;;;;5034602;28;20006;-66
2023/09/07 14:15:31;;;;;;;4.50;2.70;;;;;;;;;;5039734;28;20018;-69
2023/09/07 14:17:56;;;;;;;5.63;2.65;;;;;;;;;;5035370;28;20354;-73
2023/09/07 14:20:22;;;;;;;5.88;2.58;;;;;;;;;;5050808;28;20028;-69
2023/09/07 14:22:47;;;;;;;5.75;2.75;;;;;;;;;;5054086;28;20556;-73
2023/09/07 14:25:13;;;;;;;4.43;2.78;;;;;;;;;;5053889;28;20048;-69
2023/09/07 14:27:38;;;;;;;4.13;2.60;;;;;;;;;;5047145;28;20032;-69
2023/09/07 14:30:04;;;;;;;5.30;2.63;;;;;;;;;;5035021;28;20682;-69
2023/09/07 14:32:29;;;;;;;5.35;2.72;;;;;;;;;;5035371;28;20041;-71